Time;durP1;ratioP1;P1;durP2;ratioP2;P2;SDS_P1;SDS_P2;PMS_P1;PMS_P2;Temp;Humidity;BMP_temperature;BMP_pressure;BME280_temperature;BME280_humidity;BME280_pressure;Samples;Min_cycle;Max_cycle;Signal;HPM_P1;HPM_P2
2023/08/28 00:00:53;;;;;;;1.38;1.10;;;15.20;99.90;;;15.41;100.00;100609.75;5243893;28;20052;-52
2023/08/28 00:03:25;;;;;;;2.72;1.20;;;15.20;99.90;;;15.39;100.00;100609.72;5242942;28;20060;-53
2023/08/28 00:05:58;;;;;;;1.27;1.00;;;15.20;99.90;;;15.41;100.00;100607.09;5242535;28;20055;-51
2023/08/28 00:08:30;;;;;;;1.42;1.10;;;15.20;99.90;;;15.39;100.00;100604.47;5243405;28;20049;-53
2023/08/28 00:11:04;;;;;;;1.70;1.20;;;15.20;99.90;;;15.37;100.00;100602.66;5243530;28;20521;-53
2023/08/28 00:13:37;;;;;;;2.03;1.20;;;15.20;99.90;;;15.35;100.00;100601.78;5243088;28;20563;-53
2023/08/28 00:16:09;;;;;;;2.38;1.25;;;15.10;99.90;;;15.34;100.00;100600.03;5242110;28;20045;-53
2023/08/28 00:18:45;;;;;;;1.80;1.10;;;15.10;99.90;;;15.33;100.00;100607.03;5243507;28;20501;-52
2023/08/28 00:21:17;;;;;;;2.60;1.10;;;15.10;99.90;;;15.31;100.00;100611.34;5243405;28;20459;-55
2023/08/28 00:23:50;;;;;;;2.47;1.30;;;15.10;99.90;;;15.31;100.00;100613.97;5243249;28;20048;-54
2023/08/28 00:26:23;;;;;;;1.55;1.00;;;15.10;99.90;;;15.33;100.00;100614.03;5242284;28;20052;-54
2023/08/28 00:28:59;;;;;;;2.53;1.13;;;15.00;99.90;;;15.34;100.00;100600.91;5243141;28;20056;-53
2023/08/28 00:31:31;;;;;;;1.27;1.10;;;15.10;99.90;;;15.35;100.00;100607.91;5243231;28;20048;-53
2023/08/28 00:34:03;;;;;;;1.73;1.30;;;15.10;99.90;;;15.35;100.00;100612.28;5242423;28;20501;-54
2023/08/28 00:36:36;;;;;;;3.60;1.42;;;15.10;99.90;;;15.34;100.00;100611.41;5242033;28;20059;-53
2023/08/28 00:39:08;;;;;;;2.20;1.10;;;15.10;99.90;;;15.33;100.00;100604.41;5242781;28;20048;-52
2023/08/28 00:41:42;;;;;;;1.58;1.20;;;15.10;99.90;;;15.32;100.00;100615.78;5242630;28;20044;-53
2023/08/28 00:44:15;;;;;;;1.50;1.27;;;15.10;99.90;;;15.31;100.00;100606.09;5242806;28;20041;-53
2023/08/28 00:46:47;;;;;;;1.95;1.20;;;15.10;99.90;;;15.29;100.00;100607.84;5241946;28;20078;-53
2023/08/28 00:49:20;;;;;;;1.77;1.13;;;15.10;99.90;;;15.28;100.00;100616.56;5243239;28;20505;-53
2023/08/28 00:51:54;;;;;;;1.67;1.35;;;15.00;99.90;;;15.28;100.00;100608.69;5242911;28;20059;-52
2023/08/28 00:54:27;;;;;;;1.70;1.20;;;15.00;99.90;;;15.28;100.00;100616.56;5242622;28;20109;-54
2023/08/28 00:57:05;;;;;;;1.45;1.25;;;15.00;99.90;;;15.29;100.00;100614.84;5241785;28;20114;-54
2023/08/28 00:59:38;;;;;;;1.33;1.10;;;15.00;99.90;;;15.29;100.00;100607.84;5242565;28;20056;-52
2023/08/28 01:02:10;;;;;;;1.65;0.90;;;15.00;99.90;;;15.29;100.00;100606.97;5242261;28;20127;-52
2023/08/28 01:04:43;;;;;;;1.77;1.33;;;15.00;99.90;;;15.29;100.00;100607.84;5242522;28;20064;-53
2023/08/28 01:07:22;;;;;;;1.30;1.20;;;15.00;99.90;;;15.29;100.00;100606.97;5241628;28;20048;-54
2023/08/28 01:10:06;;;;;;;1.70;1.35;;;15.00;99.90;;;15.29;100.00;100597.31;5242503;28;20044;-53
2023/08/28 01:12:53;;;;;;;1.60;1.13;;;15.00;99.90;;;15.29;100.00;100601.69;5242254;28;20102;-52
2023/08/28 01:15:27;;;;;;;2.15;1.15;;;15.00;99.90;;;15.30;100.00;100604.34;5241540;28;20051;-53
2023/08/28 01:18:04;;;;;;;1.88;1.30;;;15.00;99.90;;;15.31;100.00;100590.34;5242468;28;20049;-53
2023/08/28 01:20:38;;;;;;;2.28;1.40;;;15.10;99.90;;;15.32;100.00;100594.75;5242540;28;20055;-53
2023/08/28 01:23:19;;;;;;;2.72;1.27;;;15.00;99.90;;;15.31;100.00;100579.84;5242291;28;20052;-53
2023/08/28 01:25:54;;;;;;;1.70;1.10;;;15.10;99.90;;;15.31;100.00;100581.59;5241940;28;20060;-53
2023/08/28 01:28:26;;;;;;;1.88;1.27;;;15.10;99.90;;;15.29;100.00;100581.56;5243955;28;20131;-54
2023/08/28 01:30:59;;;;;;;2.30;1.30;;;15.00;99.90;;;15.26;100.00;100576.31;5242613;28;20252;-54
2023/08/28 01:33:32;;;;;;;1.75;1.35;;;15.00;99.90;;;15.26;100.00;100578.00;5242150;28;20078;-52
2023/08/28 01:36:23;;;;;;;1.50;1.10;;;15.00;99.90;;;15.25;100.00;100563.13;5241661;28;20052;-54
2023/08/28 01:39:14;;;;;;;2.45;1.25;;;15.00;99.90;;;15.22;100.00;100569.22;5242357;28;20143;-53
2023/08/28 01:41:48;;;;;;;2.80;1.30;;;15.00;99.90;;;15.22;100.00;100576.22;5242177;28;20413;-52
2023/08/28 01:44:25;;;;;;;1.15;1.05;;;15.00;99.90;;;15.20;100.00;100576.22;5242509;28;20052;-53
2023/08/28 01:46:58;;;;;;;1.33;1.02;;;15.00;99.90;;;15.20;100.00;100568.34;5244690;28;20048;-51
2023/08/28 01:49:33;;;;;;;1.52;1.05;;;14.90;99.90;;;15.19;100.00;100574.44;5246689;28;20048;-52
2023/08/28 01:52:06;;;;;;;2.78;1.25;;;15.00;99.90;;;15.18;100.00;100573.56;5246813;28;20094;-54
2023/08/28 01:54:39;;;;;;;1.42;1.33;;;15.00;99.90;;;15.17;100.00;100573.53;5246224;28;20497;-55
2023/08/28 01:57:16;;;;;;;2.35;1.25;;;14.90;99.90;;;15.13;100.00;100563.88;5246005;28;20056;-53
2023/08/28 01:59:48;;;;;;;1.85;1.10;;;14.90;99.90;;;15.07;100.00;100564.69;5246666;28;20052;-51
2023/08/28 02:02:21;;;;;;;1.45;1.10;;;14.80;99.90;;;15.04;100.00;100563.75;5246380;28;20055;-51
2023/08/28 02:04:53;;;;;;;1.52;1.20;;;14.80;99.90;;;15.00;100.00;100567.22;5246185;28;20051;-52
2023/08/28 02:07:25;;;;;;;2.55;1.33;;;14.80;99.90;;;14.97;100.00;100561.91;5245581;28;20041;-52
2023/08/28 02:09:58;;;;;;;1.67;1.05;;;14.70;99.90;;;14.92;100.00;100553.97;5246513;28;20049;-53
2023/08/28 02:12:31;;;;;;;1.38;0.93;;;14.70;99.90;;;14.86;100.00;100552.13;5246246;28;20060;-54
2023/08/28 02:15:09;;;;;;;1.85;1.13;;;14.70;99.90;;;14.80;100.00;100544.22;5245780;28;20044;-53
2023/08/28 02:17:41;;;;;;;1.45;1.10;;;14.60;99.90;;;14.77;100.00;100548.50;5246343;28;20057;-52
2023/08/28 02:20:13;;;;;;;1.40;1.02;;;14.60;99.90;;;14.73;100.00;100544.94;5246050;28;20040;-53
2023/08/28 02:22:46;;;;;;;1.33;1.00;;;14.50;99.90;;;14.66;100.00;100562.34;5245982;28;20054;-52
2023/08/28 02:25:20;;;;;;;2.08;1.10;;;14.50;99.90;;;14.62;100.00;100580.66;5244903;28;20071;-53
2023/08/28 02:27:54;;;;;;;1.80;0.98;;;14.40;99.90;;;14.61;100.00;100597.28;5245885;28;20049;-52
2023/08/28 02:30:27;;;;;;;1.45;0.93;;;14.40;99.90;;;14.59;100.00;100601.59;5245763;28;20147;-56
2023/08/28 02:33:02;;;;;;;1.77;1.25;;;14.40;99.90;;;14.54;100.00;100614.66;5245973;28;20056;-52
2023/08/28 02:35:35;;;;;;;1.88;1.15;;;14.40;99.90;;;14.51;100.00;100618.97;5244942;28;20049;-52
2023/08/28 02:38:08;;;;;;;1.75;1.20;;;14.30;99.90;;;14.50;100.00;100617.19;5245905;28;20515;-53
2023/08/28 02:40:41;;;;;;;1.83;1.17;;;14.30;99.90;;;14.51;100.00;100616.34;5245825;28;20050;-53
2023/08/28 02:43:15;;;;;;;2.53;1.20;;;14.40;99.90;;;14.52;100.00;100618.09;5245675;28;20060;-52
2023/08/28 02:45:47;;;;;;;1.92;1.40;;;14.30;99.90;;;14.54;100.00;100613.75;5244960;28;20059;-52
2023/08/28 02:48:19;;;;;;;1.75;1.30;;;14.40;99.90;;;14.57;100.00;100608.56;5245350;28;20044;-52
2023/08/28 02:50:52;;;;;;;1.27;1.17;;;14.40;99.90;;;14.59;100.00;100612.09;5245539;28;20052;-53
2023/08/28 02:53:25;;;;;;;1.73;1.27;;;14.40;99.90;;;14.64;100.00;100610.41;5245235;28;20054;-53
2023/08/28 02:56:22;;;;;;;1.30;1.20;;;14.50;99.90;;;14.66;100.00;100612.19;5244446;28;20040;-53
2023/08/28 02:58:56;;;;;;;1.77;1.42;;;14.50;99.90;;;14.68;100.00;100609.63;5245884;28;20045;-55
2023/08/28 03:01:29;;;;;;;1.60;1.25;;;14.50;99.90;;;14.71;100.00;100611.41;5245358;28;20156;-51
2023/08/28 03:04:04;;;;;;;1.98;1.30;;;14.50;99.90;;;14.73;100.00;100621.03;5245193;28;20098;-53
2023/08/28 03:06:38;;;;;;;1.70;1.45;;;14.50;99.90;;;14.76;100.00;100626.34;5244428;28;20651;-51
2023/08/28 03:09:12;;;;;;;1.90;1.33;;;14.60;99.90;;;14.79;100.00;100625.50;5244997;28;20071;-54
2023/08/28 03:11:45;;;;;;;2.38;1.35;;;14.60;99.90;;;14.81;100.00;100619.44;5245420;28;20056;-53
2023/08/28 03:14:18;;;;;;;2.47;1.42;;;14.60;99.90;;;14.82;100.00;100615.06;5244738;28;20071;-52
2023/08/28 03:16:51;;;;;;;1.88;1.38;;;14.60;99.90;;;14.83;100.00;100611.56;5244327;28;20040;-51
2023/08/28 03:19:23;;;;;;;2.85;1.23;;;14.60;99.90;;;14.82;100.00;100600.19;5245097;28;20410;-52
2023/08/28 03:21:56;;;;;;;1.58;1.05;;;14.60;99.90;;;14.83;100.00;100603.72;5244780;28;20570;-52
2023/08/28 03:24:29;;;;;;;1.80;1.08;;;14.60;99.90;;;14.81;100.00;100589.69;5244556;28;20044;-54
2023/08/28 03:27:02;;;;;;;3.55;1.50;;;14.60;99.90;;;14.78;100.00;100587.88;5244027;28;20037;-52
2023/08/28 03:29:36;;;;;;;1.55;1.40;;;14.60;99.90;;;14.76;100.00;100586.13;5244919;28;20055;-53
2023/08/28 03:32:08;;;;;;;2.40;1.10;;;14.60;99.90;;;14.71;100.00;100579.91;5244626;28;20044;-52
2023/08/28 03:34:41;;;;;;;6.05;1.35;;;14.50;99.90;;;14.67;100.00;100584.25;5244466;28;20087;-54
2023/08/28 03:37:17;;;;;;;2.35;1.23;;;14.50;99.90;;;14.62;100.00;100585.91;5243999;28;20051;-51
2023/08/28 03:39:49;;;;;;;2.03;1.25;;;14.50;99.90;;;14.57;100.00;100595.44;5244692;28;20071;-52
2023/08/28 03:42:21;;;;;;;1.65;1.10;;;14.40;99.90;;;14.53;100.00;100597.13;5244418;28;20106;-52
2023/08/28 03:44:55;;;;;;;1.63;1.30;;;14.30;99.90;;;14.53;100.00;100606.75;5244302;28;20044;-53
2023/08/28 03:47:31;;;;;;;1.77;1.30;;;14.30;99.90;;;14.51;100.00;100605.84;5243710;28;20075;-52
2023/08/28 03:50:03;;;;;;;1.05;0.95;;;14.30;99.90;;;14.49;100.00;100602.31;5244265;28;20051;-53
2023/08/28 03:52:36;;;;;;;1.52;0.90;;;14.30;99.90;;;14.50;100.00;100601.47;5244170;28;20506;-53
2023/08/28 03:55:11;;;;;;;1.15;1.02;;;14.30;99.90;;;14.49;100.00;100604.94;5243676;28;20041;-53
2023/08/28 03:57:44;;;;;;;1.73;1.10;;;14.30;99.90;;;14.47;100.00;100602.28;5244338;28;20048;-53
2023/08/28 04:00:18;;;;;;;1.42;1.08;;;14.30;99.90;;;14.47;100.00;100597.03;5244596;28;20171;-53
2023/08/28 04:02:51;;;;;;;1.50;1.25;;;14.20;99.90;;;14.50;100.00;100598.84;5245841;28;20044;-52
2023/08/28 04:05:23;;;;;;;2.78;1.20;;;14.30;99.90;;;14.51;100.00;100600.59;5243036;28;20064;-51
2023/08/28 04:07:56;;;;;;;2.05;1.35;;;14.30;99.90;;;14.51;100.00;100605.84;5245216;28;20044;-54
2023/08/28 04:10:28;;;;;;;2.30;1.40;;;14.30;99.90;;;14.50;100.00;100607.59;5243727;28;20056;-53
2023/08/28 04:13:00;;;;;;;1.73;1.25;;;14.30;99.90;;;14.49;100.00;100608.44;5243693;28;20045;-54
2023/08/28 04:15:38;;;;;;;3.28;1.20;;;14.30;99.90;;;14.49;100.00;100612.81;5242945;28;20136;-56
2023/08/28 04:18:12;;;;;;;1.85;1.30;;;14.30;99.90;;;14.49;100.00;100618.06;5243675;28;20059;-52
2023/08/28 04:20:44;;;;;;;2.25;1.50;;;14.30;99.90;;;14.50;100.00;100604.09;5243796;28;20055;-52
2023/08/28 04:23:17;;;;;;;1.70;1.33;;;14.30;99.90;;;14.51;100.00;100604.09;5243443;28;20054;-53
2023/08/28 04:25:49;;;;;;;1.95;1.33;;;14.30;99.90;;;14.53;100.00;100601.50;5242890;28;20052;-51
2023/08/28 04:28:22;;;;;;;2.75;1.80;;;14.30;99.90;;;14.54;100.00;100600.63;5243630;28;20044;-50
2023/08/28 04:30:56;;;;;;;1.85;1.48;;;14.40;99.90;;;14.57;100.00;100601.56;5243519;28;20076;-50
2023/08/28 04:33:31;;;;;;;2.10;1.55;;;14.40;99.90;;;14.53;100.00;100585.75;5243441;28;20398;-50
2023/08/28 04:36:04;;;;;;;2.78;1.45;;;14.40;99.90;;;14.53;100.00;100581.38;5242631;28;20106;-50
2023/08/28 04:38:37;;;;;;;2.03;1.27;;;14.40;99.90;;;14.56;100.00;100585.81;5244721;28;20059;-51
2023/08/28 04:41:09;;;;;;;1.60;1.20;;;14.40;99.90;;;14.58;100.00;100581.47;5243109;28;20054;-50
2023/08/28 04:43:45;;;;;;;1.48;1.00;;;14.40;99.90;;;14.57;100.00;100580.59;5242906;28;20528;-49
2023/08/28 04:46:18;;;;;;;1.27;1.10;;;14.40;99.90;;;14.58;100.00;100584.97;5242432;28;20138;-49
2023/08/28 04:48:51;;;;;;;1.63;1.20;;;14.40;99.90;;;14.56;100.00;100580.56;5243013;28;20051;-50
2023/08/28 04:51:23;;;;;;;1.73;1.30;;;14.40;99.90;;;14.54;100.00;100577.03;5242884;28;20048;-51
2023/08/28 04:53:55;;;;;;;1.63;1.40;;;14.40;99.90;;;14.52;100.00;100574.38;5243142;28;20414;-50
2023/08/28 04:56:28;;;;;;;1.58;1.20;;;14.30;99.90;;;14.49;100.00;100579.59;5242234;28;20052;-50
2023/08/28 04:59:00;;;;;;;1.73;1.08;;;14.30;99.90;;;14.45;100.00;100584.72;5242994;28;20056;-51
2023/08/28 05:01:34;;;;;;;1.55;1.38;;;14.30;99.90;;;14.39;100.00;100594.25;5242683;28;20052;-50
2023/08/28 05:04:07;;;;;;;1.70;1.30;;;14.20;99.90;;;14.35;100.00;100597.72;5242831;28;20057;-50
2023/08/28 05:06:39;;;;;;;1.65;1.25;;;14.20;99.90;;;14.32;100.00;100594.13;5241806;28;20072;-51
2023/08/28 05:09:12;;;;;;;1.15;1.05;;;14.20;99.90;;;14.31;100.00;100592.38;5242745;28;20052;-50
2023/08/28 05:11:44;;;;;;;1.13;1.02;;;14.20;99.90;;;14.28;100.00;100595.84;5242537;28;20052;-50
2023/08/28 05:14:16;;;;;;;1.45;1.05;;;14.10;99.90;;;14.29;100.00;100605.47;5242082;28;20048;-51
2023/08/28 05:16:51;;;;;;;1.45;0.93;;;14.10;99.90;;;14.29;100.00;100605.47;5241870;28;20051;-50
2023/08/28 05:19:26;;;;;;;1.08;1.05;;;14.10;99.90;;;14.29;100.00;100605.47;5242726;28;20041;-50
2023/08/28 05:21:59;;;;;;;1.40;1.10;;;14.10;99.90;;;14.32;100.00;100608.13;5241374;28;20052;-50
2023/08/28 05:24:31;;;;;;;2.63;1.33;;;14.10;99.90;;;14.35;100.00;100608.19;5224788;28;20049;-51
2023/08/28 05:27:04;;;;;;;1.42;1.13;;;14.10;99.90;;;14.35;100.00;100605.56;5242535;28;20510;-52
2023/08/28 05:29:36;;;;;;;1.25;0.98;;;14.20;99.90;;;14.36;100.00;100615.19;5227420;28;20049;-50
2023/08/28 05:32:10;;;;;;;1.02;0.93;;;14.20;99.90;;;14.36;100.00;100609.94;5239271;28;20049;-50
2023/08/28 05:34:42;;;;;;;1.10;1.00;;;14.20;99.90;;;14.38;100.00;100626.59;5224611;28;20048;-51
2023/08/28 05:37:15;;;;;;;1.80;1.35;;;14.20;99.90;;;14.37;100.00;100619.59;5224053;28;20036;-50
2023/08/28 05:39:47;;;;;;;3.17;1.27;;;14.20;99.90;;;14.39;100.00;100615.22;5225067;28;20053;-50
2023/08/28 05:42:20;;;;;;;2.00;0.95;;;14.20;99.90;;;14.40;100.00;100611.75;5224388;28;20057;-50
2023/08/28 05:44:53;;;;;;;1.25;1.02;;;14.20;99.90;;;14.44;100.00;100611.81;5233023;28;20052;-51
2023/08/28 05:47:27;;;;;;;1.35;1.20;;;14.20;99.90;;;14.48;100.00;100608.44;5225122;28;20036;-52
2023/08/28 05:49:59;;;;;;;1.42;1.10;;;14.30;99.90;;;14.54;100.00;100613.75;5239314;28;20048;-51
2023/08/28 05:52:32;;;;;;;1.20;1.10;;;14.30;99.90;;;14.62;100.00;100607.78;5235104;28;20053;-50
2023/08/28 05:55:05;;;;;;;2.15;1.20;;;14.40;99.90;;;14.75;100.00;100600.97;5235951;28;20401;-51
2023/08/28 05:57:42;;;;;;;1.77;1.40;;;14.50;99.90;;;14.84;100.00;100590.59;5235862;28;20517;-50
2023/08/28 06:00:16;;;;;;;2.00;1.33;;;14.60;99.90;;;15.02;100.00;100597.84;5239908;28;20062;-50
2023/08/28 06:02:50;;;;;;;1.98;1.42;;;14.70;99.90;;;15.23;100.00;100599.00;5227600;28;20064;-50
2023/08/28 06:05:22;;;;;;;2.20;1.67;;;14.90;99.90;;;15.46;100.00;100601.06;5222664;28;20056;-50
2023/08/28 06:07:55;;;;;;;2.20;1.60;;;15.10;99.90;;;15.69;100.00;100603.97;5237241;28;20044;-51
2023/08/28 06:10:29;;;;;;;2.63;1.48;;;15.30;99.90;;;15.92;100.00;100596.31;5234400;28;20064;-51
2023/08/28 06:13:01;;;;;;;;;;;15.50;99.90;;;16.12;100.00;100596.53;5236393;28;20053;-51
2023/08/28 06:15:40;;;;;;;2.83;1.52;;;15.80;99.90;;;16.32;100.00;100588.78;5226801;28;20019;-50
2023/08/28 06:18:13;;;;;;;3.08;1.58;;;15.90;99.90;;;16.45;100.00;100593.28;5222340;28;20041;-50
2023/08/28 06:20:46;;;;;;;1.95;1.48;;;16.10;99.90;;;16.57;100.00;100586.38;5237877;28;20555;-50
2023/08/28 06:23:18;;;;;;;1.90;1.30;;;16.30;99.90;;;16.60;100.00;100589.00;5239143;28;20421;-47
2023/08/28 06:25:51;;;;;;;2.13;1.30;;;16.30;99.90;;;16.69;100.00;100578.53;5234123;28;20536;-47
2023/08/28 06:28:23;;;;;;;2.15;1.20;;;16.40;99.90;;;16.84;100.00;100583.94;5225583;28;20040;-48
2023/08/28 06:30:56;;;;;;;1.42;1.17;;;16.50;99.90;;;17.01;100.00;100579.63;5234968;28;20048;-46
2023/08/28 06:33:30;;;;;;;1.40;1.10;;;16.70;99.90;;;17.20;100.00;100593.75;5242664;28;20143;-47
2023/08/28 06:36:03;;;;;;;1.42;1.20;;;16.80;99.90;;;17.30;100.00;100589.44;5237074;28;20044;-48
2023/08/28 06:38:35;;;;;;;1.95;1.10;;;16.90;99.90;;;17.39;100.00;100600.00;5239679;28;20045;-48
2023/08/28 06:41:08;;;;;;;1.67;1.20;;;17.10;99.90;;;17.48;100.00;100599.16;5231470;28;20390;-48
2023/08/28 06:43:40;;;;;;;1.27;1.13;;;17.10;99.90;;;17.59;100.00;100600.06;5244146;28;20528;-48
2023/08/28 06:46:12;;;;;;;3.47;1.40;;;17.20;99.90;;;17.71;100.00;100602.78;5236151;28;20044;-48
2023/08/28 06:48:48;;;;;;;2.70;1.00;;;17.30;99.90;;;17.83;100.00;100599.28;5242943;28;20045;-48
2023/08/28 06:51:20;;;;;;;1.70;1.30;;;17.40;99.90;;;17.89;100.00;100604.56;5232842;28;20068;-47
2023/08/28 06:53:55;;;;;;;1.90;1.10;;;17.50;99.90;;;17.89;100.00;100608.09;5233532;28;20048;-47
2023/08/28 06:56:29;;;;;;;1.55;1.30;;;17.50;99.90;;;17.90;100.00;100614.25;5238726;28;20052;-47
2023/08/28 06:59:02;;;;;;;1.55;1.40;;;17.60;99.90;;;17.89;100.00;100620.41;5224206;28;20052;-47
2023/08/28 07:01:37;;;;;;;1.65;1.35;;;17.60;99.90;;;17.90;100.00;100617.75;5224433;28;20049;-48
2023/08/28 07:04:11;;;;;;;2.25;1.35;;;17.60;99.90;;;17.89;100.00;100617.75;5222974;28;20444;-48
2023/08/28 07:06:43;;;;;;;2.83;1.33;;;17.60;99.90;;;17.92;100.00;100616.88;5222213;28;20052;-48
2023/08/28 07:09:16;;;;;;;3.30;1.33;;;17.60;99.90;;;17.99;100.00;100608.09;5225578;28;20247;-48
2023/08/28 07:11:48;;;;;;;2.80;1.30;;;17.60;99.90;;;18.11;100.00;100602.84;5224365;28;20052;-48
2023/08/28 07:14:21;;;;;;;2.83;1.63;;;17.70;99.90;;;18.18;100.00;100608.13;5224383;28;20107;-49
2023/08/28 07:16:53;;;;;;;4.13;1.77;;;17.80;99.90;;;18.33;100.00;100607.28;5223441;28;20525;-48
2023/08/28 07:19:27;;;;;;;4.63;1.90;;;17.90;99.90;;;18.43;100.00;100614.28;5223895;28;20055;-48
2023/08/28 07:22:00;;;;;;;5.18;2.33;;;18.00;99.90;;;18.52;100.00;100626.63;5224141;28;20049;-48
2023/08/28 07:24:33;;;;;;;5.03;2.00;;;18.10;99.90;;;18.58;100.00;100623.97;5223627;28;20139;-53
2023/08/28 07:27:06;;;;;;;7.07;2.10;;;18.20;99.90;;;18.69;100.00;100611.66;5222515;28;20183;-53
2023/08/28 07:29:38;;;;;;;7.72;2.25;;;18.20;99.90;;;18.84;100.00;100620.44;5224442;28;20045;-55
2023/08/28 07:32:10;;;;;;;8.50;2.72;;;18.30;99.90;;;18.93;100.00;100616.03;5223539;28;20049;-52
2023/08/28 07:34:44;;;;;;;4.30;1.85;;;18.40;99.90;;;19.02;100.00;100619.53;5223496;28;20045;-54
2023/08/28 07:37:16;;;;;;;4.70;1.63;;;18.50;99.90;;;19.10;100.00;100626.53;5224635;28;20048;-51
2023/08/28 07:39:49;;;;;;;3.95;1.80;;;18.60;99.90;;;19.18;100.00;100631.81;5226652;28;20067;-53
2023/08/28 07:42:22;;;;;;;4.43;1.55;;;18.70;99.90;;;19.21;100.00;100623.88;5223751;28;20048;-53
2023/08/28 07:44:54;;;;;;;4.22;1.70;;;18.70;99.90;;;19.20;100.00;100625.66;5225277;28;20509;-54
2023/08/28 07:47:28;;;;;;;3.35;1.80;;;18.80;99.90;;;19.27;100.00;100625.63;5238732;28;20052;-54
2023/08/28 07:50:06;;;;;;;2.33;1.42;;;18.80;99.90;;;19.36;100.00;100620.28;5239931;28;20048;-53
2023/08/28 07:52:38;;;;;;;4.00;1.63;;;18.90;99.90;;;19.43;100.00;100625.56;5241377;28;20044;-53
2023/08/28 07:55:11;;;;;;;3.63;1.83;;;19.00;99.90;;;19.48;100.00;100631.69;5238403;28;20539;-52
2023/08/28 07:57:46;;;;;;;2.45;1.50;;;19.00;99.90;;;19.48;100.00;100639.63;5234629;28;20129;-52
2023/08/28 08:00:20;;;;;;;2.05;1.42;;;19.10;99.90;;;19.55;100.00;100637.84;5234326;28;20036;-54
2023/08/28 08:02:53;;;;;;;2.72;1.52;;;19.10;99.90;;;19.71;100.00;100639.56;5236319;28;20041;-52
2023/08/28 08:05:27;;;;;;;1.65;1.30;;;19.20;99.90;;;19.97;100.00;100646.50;5242777;28;20135;-53
2023/08/28 08:08:00;;;;;;;1.95;1.42;;;19.40;99.90;;;20.19;100.00;100640.16;5239766;28;20049;-53
2023/08/28 08:10:32;;;;;;;5.10;1.50;;;19.60;99.90;;;20.36;100.00;100641.81;5239379;28;20048;-54
2023/08/28 08:13:05;;;;;;;3.00;1.58;;;19.70;99.90;;;20.47;100.00;100638.19;5243434;28;20052;-53
2023/08/28 08:15:37;;;;;;;3.78;1.90;;;19.70;99.90;;;20.50;100.00;100647.91;5240581;28;20456;-53
2023/08/28 08:18:10;;;;;;;4.70;1.75;;;19.80;99.90;;;20.47;100.00;100647.91;5232448;28;20040;-53
2023/08/28 08:20:44;;;;;;;3.75;1.60;;;19.80;99.90;;;20.44;99.99;100643.50;5234799;28;20048;-53
2023/08/28 08:23:16;;;;;;;3.70;1.75;;;19.70;99.90;;;20.41;100.00;100645.28;5241100;28;20040;-53
2023/08/28 08:25:48;;;;;;;4.68;1.75;;;19.70;99.90;;;20.50;100.00;100642.63;5251449;28;20456;-52
2023/08/28 08:28:21;;;;;;;2.03;1.45;;;19.70;99.90;;;20.66;100.00;100635.41;5236249;28;20489;-52
2023/08/28 08:30:53;;;;;;;4.18;1.58;;;19.80;99.90;;;20.83;100.00;100626.41;5237033;28;20048;-54
2023/08/28 08:33:25;;;;;;;5.95;1.83;;;19.90;99.90;;;21.02;99.47;100626.22;5240548;28;20568;-53
2023/08/28 08:36:02;;;;;;;3.55;2.08;;;20.00;99.90;;;21.26;99.29;100625.97;5224106;28;20040;-52
2023/08/28 08:38:35;;;;;;;3.17;2.00;;;20.20;99.90;;;21.38;98.33;100630.25;5237741;28;20036;-52
2023/08/28 08:41:11;;;;;;;2.85;1.60;;;20.30;99.90;;;21.40;98.49;100634.66;5210544;28;20064;-53
2023/08/28 08:43:46;;;;;;;3.10;1.42;;;20.40;99.90;;;21.43;98.55;100630.19;5241647;28;20072;-52
2023/08/28 08:46:20;;;;;;;2.65;1.40;;;20.40;99.90;;;21.40;98.75;100639.97;5240220;28;20513;-53
2023/08/28 08:48:57;;;;;;;3.05;1.35;;;20.40;99.90;;;21.28;98.97;100626.84;5229086;28;20051;-55
2023/08/28 08:51:31;;;;;;;2.63;1.80;;;20.40;99.90;;;21.18;99.35;100630.44;5238838;28;20067;-54
2023/08/28 08:54:09;;;;;;;2.83;1.60;;;20.40;99.90;;;21.00;99.52;100628.91;5231967;28;20048;-53
2023/08/28 08:56:42;;;;;;;2.40;1.63;;;20.20;99.90;;;20.89;100.00;100624.59;5231497;28;20450;-53
2023/08/28 08:59:15;;;;;;;4.28;1.60;;;20.10;99.90;;;20.80;100.00;100621.16;5229190;28;20440;-53
2023/08/28 09:01:51;;;;;;;3.10;1.60;;;20.10;99.90;;;20.78;100.00;100617.63;5239374;28;20406;-54
2023/08/28 09:04:25;;;;;;;3.53;1.70;;;20.10;99.90;;;20.76;100.00;100614.13;5235466;28;20064;-53
2023/08/28 09:06:59;;;;;;;2.40;1.42;;;20.10;99.90;;;20.72;100.00;100611.50;5238534;28;20044;-54
2023/08/28 09:09:32;;;;;;;3.03;1.80;;;20.10;99.90;;;20.63;100.00;100612.47;5237691;28;20136;-53
2023/08/28 09:12:07;;;;;;;3.78;1.98;;;20.10;99.90;;;20.53;100.00;100610.78;5240672;28;20066;-53
2023/08/28 09:14:40;;;;;;;3.25;2.00;;;20.00;99.90;;;20.47;100.00;100610.84;5233264;28;20049;-52
2023/08/28 09:17:13;;;;;;;3.38;2.10;;;19.90;99.90;;;20.45;100.00;100602.06;5237768;28;20045;-54
2023/08/28 09:19:46;;;;;;;5.00;1.90;;;19.90;99.90;;;20.43;100.00;100603.81;5238346;28;20048;-53
2023/08/28 09:22:25;;;;;;;3.10;1.77;;;19.90;99.90;;;20.43;100.00;100593.22;5234451;28;20058;-54
2023/08/28 09:24:58;;;;;;;3.30;1.77;;;19.90;99.90;;;20.45;100.00;100602.06;5240111;28;20505;-53
2023/08/28 09:27:30;;;;;;;4.10;1.92;;;19.90;99.90;;;20.49;100.00;100599.38;5241394;28;20033;-51
2023/08/28 09:30:09;;;;;;;3.72;1.80;;;20.00;99.90;;;20.57;100.00;100596.66;5232483;28;20045;-51
2023/08/28 09:32:46;;;;;;;3.28;1.90;;;20.00;99.90;;;20.66;100.00;100583.31;5224932;28;20549;-51
2023/08/28 09:35:21;;;;;;;2.85;1.60;;;20.10;99.90;;;20.73;100.00;100586.78;5221138;28;20041;-52
2023/08/28 09:38:02;;;;;;;3.97;1.98;;;20.20;99.90;;;20.74;100.00;100589.44;5239501;28;20267;-51
2023/08/28 09:40:36;;;;;;;3.42;1.73;;;20.20;99.90;;;20.75;100.00;100599.13;5228228;28;20086;-51
2023/08/28 09:43:13;;;;;;;;;;;20.20;99.90;;;20.73;100.00;100592.94;5236255;28;20594;-51
2023/08/28 09:45:46;;;;;;;4.65;1.95;;;20.20;99.90;;;20.74;100.00;100591.19;5237256;28;19924;-51
2023/08/28 09:48:19;;;;;;;4.88;1.60;;;20.20;99.90;;;20.75;100.00;100587.66;5238308;28;20086;-51
2023/08/28 09:50:53;;;;;;;3.65;1.95;;;20.20;99.90;;;20.77;100.00;100591.16;5240053;28;20044;-50
2023/08/28 09:53:28;;;;;;;2.03;1.52;;;20.20;99.90;;;20.77;100.00;100586.75;5233293;28;20037;-50
2023/08/28 09:56:04;;;;;;;2.75;1.48;;;20.30;99.90;;;20.78;100.00;100591.13;5241645;28;20101;-52
2023/08/28 09:58:37;;;;;;;3.30;1.63;;;20.30;99.90;;;20.77;100.00;100586.75;5255380;28;20048;-52
2023/08/28 10:01:11;;;;;;;4.00;2.03;;;20.30;99.90;;;20.77;100.00;100576.13;5241633;28;20043;-50
2023/08/28 10:03:43;;;;;;;2.97;1.77;;;20.30;99.90;;;20.82;100.00;100579.63;5240626;28;20074;-50
2023/08/28 10:06:20;;;;;;;3.33;1.80;;;20.30;99.90;;;20.90;100.00;100581.31;5232740;28;20451;-51
2023/08/28 10:08:59;;;;;;;3.85;1.65;;;20.30;99.90;;;20.93;100.00;100582.16;5241840;28;20541;-51
2023/08/28 10:11:37;;;;;;;3.97;1.90;;;20.40;99.90;;;20.97;100.00;100581.22;5234414;28;20056;-50
2023/08/28 10:14:13;;;;;;;3.85;1.85;;;20.40;99.90;;;20.98;100.00;100579.44;5245211;28;20040;-52
2023/08/28 10:16:52;;;;;;;2.55;1.70;;;20.40;99.90;;;20.98;100.00;100576.81;5236872;28;20060;-51
2023/08/28 10:19:29;;;;;;;2.60;1.70;;;20.40;99.90;;;20.97;100.00;100583.88;5235154;28;20099;-52
2023/08/28 10:22:08;;;;;;;2.75;1.70;;;20.40;99.90;;;20.96;100.00;100594.50;5233016;28;20048;-50
2023/08/28 10:24:45;;;;;;;3.47;1.60;;;20.40;99.90;;;20.98;100.00;100598.00;5240979;28;20052;-51
2023/08/28 10:27:18;;;;;;;1.92;1.60;;;20.40;99.90;;;21.01;100.00;100604.16;5229606;28;20075;-52
2023/08/28 10:29:50;;;;;;;2.03;1.75;;;20.50;99.90;;;20.98;100.00;100600.66;5243965;28;20044;-51
2023/08/28 10:32:23;;;;;;;4.25;1.67;;;20.50;99.90;;;21.01;100.00;100598.84;5239592;28;20060;-51
2023/08/28 10:34:58;;;;;;;2.35;1.75;;;20.50;99.90;;;21.13;100.00;100592.53;5246227;28;20498;-52